createdAt,value
2022-09-28T00:00:53.788Z,57820.69
2022-09-28T00:01:57.540Z,57684.25
2022-09-28T00:03:01.535Z,57551.83
2022-09-28T00:04:06.498Z,57573.90
2022-09-28T00:05:09.804Z,57583.93
2022-09-28T00:07:33.561Z,58286.23
2022-09-28T00:08:41.255Z,58729.75
2022-09-28T00:09:44.750Z,58886.30
2022-09-28T00:10:47.711Z,59054.89
2022-09-28T00:11:50.922Z,58986.65
2022-09-28T00:12:56.630Z,58602.31
2022-09-28T00:14:00.331Z,58205.96
2022-09-28T00:15:03.301Z,57664.19
2022-09-28T00:17:16.634Z,56759.39
2022-09-28T00:18:20.371Z,56510.65
2022-09-28T00:19:33.872Z,57141.54
2022-09-28T00:20:38.802Z,56950.96
2022-09-28T00:21:41.452Z,56472.54
2022-09-28T00:22:47.398Z,55683.32
2022-09-28T00:23:50.779Z,55453.71
2022-09-28T00:24:54.168Z,55276.24
2022-09-28T23:36:38.807Z,55122.84
2022-09-28T23:37:42.007Z,55876.85
2022-09-28T23:38:45.165Z,55840.75
2022-09-28T23:39:48.148Z,55809.67
2022-09-28T23:40:51.073Z,55818.69
2022-09-28T23:41:54.097Z,55832.73
2022-09-28T23:42:57.079Z,55868.83
2022-09-28T23:44:00.069Z,55886.88
2022-09-28T23:45:02.821Z,55863.82
2022-09-28T23:46:05.941Z,55863.82
2022-09-28T23:47:09.082Z,55829.72
2022-09-28T23:48:12.162Z,55850.78
2022-09-28T23:49:15.270Z,55864.82
2022-09-28T23:50:17.907Z,55864.82
2022-09-28T23:51:23.914Z,55875.85
2022-09-28T23:52:26.940Z,55895.91
2022-09-28T23:53:30.223Z,55924.98
2022-09-28T23:54:33.406Z,55893.90
2022-09-28T23:55:37.006Z,55856.80
2022-09-28T23:56:42.969Z,55964.09
2022-09-28T23:57:47.063Z,55969.11
2022-09-28T23:58:50.569Z,55991.17
2022-09-28T23:59:53.715Z,56019.25
